sensor_id;sensor_type;location;lat;lon;timestamp;P1;durP1;ratioP1;P2;durP2;ratioP2
15921;SDS011;8060;50.948;3.146;2022-09-01T05:57:32;11.47;;;3.63;;
15921;SDS011;8060;50.948;3.146;2022-09-01T06:00:01;7.37;;;3.63;;
15921;SDS011;8060;50.948;3.146;2022-09-01T06:02:38;10.93;;;4.00;;
15921;SDS011;8060;50.948;3.146;2022-09-01T06:05:08;13.07;;;4.00;;
15921;SDS011;8060;50.948;3.146;2022-09-01T06:07:36;7.53;;;3.60;;
15921;SDS011;8060;50.948;3.146;2022-09-01T06:10:08;12.00;;;3.53;;
15921;SDS011;8060;50.948;3.146;2022-09-01T06:12:38;8.60;;;3.60;;
15921;SDS011;8060;50.948;3.146;2022-09-01T06:15:08;7.70;;;3.43;;
15921;SDS011;8060;50.948;3.146;2022-09-01T06:17:41;8.20;;;3.67;;
15921;SDS011;8060;50.948;3.146;2022-09-01T06:20:09;12.33;;;3.80;;
15921;SDS011;8060;50.948;3.146;2022-09-01T06:22:37;7.27;;;3.90;;
15921;SDS011;8060;50.948;3.146;2022-09-01T06:25:06;9.73;;;3.97;;
15921;SDS011;8060;50.948;3.146;2022-09-01T06:27:35;12.60;;;3.90;;
15921;SDS011;8060;50.948;3.146;2022-09-01T06:30:11;8.53;;;3.70;;
15921;SDS011;8060;50.948;3.146;2022-09-01T06:32:47;10.87;;;4.43;;
15921;SDS011;8060;50.948;3.146;2022-09-01T06:35:17;8.57;;;4.00;;
15921;SDS011;8060;50.948;3.146;2022-09-01T06:37:46;13.80;;;4.20;;
15921;SDS011;8060;50.948;3.146;2022-09-01T06:40:14;11.63;;;4.70;;
15921;SDS011;8060;50.948;3.146;2022-09-01T06:42:44;7.53;;;4.33;;
15921;SDS011;8060;50.948;3.146;2022-09-01T06:45:15;7.07;;;4.37;;
15921;SDS011;8060;50.948;3.146;2022-09-01T06:47:45;10.80;;;4.40;;
15921;SDS011;8060;50.948;3.146;2022-09-01T06:50:22;11.07;;;4.20;;
15921;SDS011;8060;50.948;3.146;2022-09-01T06:53:13;12.37;;;4.97;;
15921;SDS011;8060;50.948;3.146;2022-09-01T06:56:01;12.43;;;4.43;;
15921;SDS011;8060;50.948;3.146;2022-09-01T06:58:29;10.77;;;4.20;;
15921;SDS011;8060;50.948;3.146;2022-09-01T07:01:03;14.07;;;4.63;;
15921;SDS011;8060;50.948;3.146;2022-09-01T07:03:33;15.83;;;5.13;;
15921;SDS011;8060;50.948;3.146;2022-09-01T07:06:03;8.43;;;4.77;;
15921;SDS011;8060;50.948;3.146;2022-09-01T07:08:55;11.40;;;4.70;;
15921;SDS011;8060;50.948;3.146;2022-09-01T07:11:46;10.13;;;4.73;;
15921;SDS011;8060;50.948;3.146;2022-09-01T07:14:35;11.63;;;4.50;;
15921;SDS011;8060;50.948;3.146;2022-09-01T07:17:24;9.53;;;4.83;;
15921;SDS011;8060;50.948;3.146;2022-09-01T07:19:54;7.63;;;4.60;;
15921;SDS011;8060;50.948;3.146;2022-09-01T07:22:44;13.70;;;5.43;;
15921;SDS011;8060;50.948;3.146;2022-09-01T07:25:37;11.87;;;4.90;;
15921;SDS011;8060;50.948;3.146;2022-09-01T07:28:28;12.33;;;5.00;;
15921;SDS011;8060;50.948;3.146;2022-09-01T07:31:06;17.07;;;5.67;;
15921;SDS011;8060;50.948;3.146;2022-09-01T07:33:57;12.13;;;5.23;;
15921;SDS011;8060;50.948;3.146;2022-09-01T07:36:47;13.37;;;6.20;;
15921;SDS011;8060;50.948;3.146;2022-09-01T07:39:35;8.57;;;4.80;;
15921;SDS011;8060;50.948;3.146;2022-09-01T07:42:20;15.23;;;5.60;;
15921;SDS011;8060;50.948;3.146;2022-09-01T07:45:10;9.87;;;5.50;;
15921;SDS011;8060;50.948;3.146;2022-09-01T07:47:55;18.03;;;5.77;;
15921;SDS011;8060;50.948;3.146;2022-09-01T07:50:30;9.80;;;5.17;;
15921;SDS011;8060;50.948;3.146;2022-09-01T07:53:19;14.17;;;5.40;;
15921;SDS011;8060;50.948;3.146;2022-09-01T07:55:49;14.97;;;6.30;;
15921;SDS011;8060;50.948;3.146;2022-09-01T07:58:18;11.53;;;5.07;;
15921;SDS011;8060;50.948;3.146;2022-09-01T08:00:48;9.30;;;5.67;;
15921;SDS011;8060;50.948;3.146;2022-09-01T08:03:17;13.10;;;5.63;;
15921;SDS011;8060;50.948;3.146;2022-09-01T08:05:49;13.17;;;5.80;;
15921;SDS011;8060;50.948;3.146;2022-09-01T08:08:23;11.03;;;5.30;;
15921;SDS011;8060;50.948;3.146;2022-09-01T08:10:54;11.93;;;5.63;;
15921;SDS011;8060;50.948;3.146;2022-09-01T08:13:30;13.30;;;6.20;;
15921;SDS011;8060;50.948;3.146;2022-09-01T08:16:06;11.90;;;5.60;;
15921;SDS011;8060;50.948;3.146;2022-09-01T08:18:43;14.70;;;6.07;;
15921;SDS011;8060;50.948;3.146;2022-09-01T08:21:16;10.50;;;5.97;;
15921;SDS011;8060;50.948;3.146;2022-09-01T08:23:47;11.07;;;6.20;;
15921;SDS011;8060;50.948;3.146;2022-09-01T08:26:17;12.97;;;6.00;;
15921;SDS011;8060;50.948;3.146;2022-09-01T08:28:48;14.10;;;5.93;;
15921;SDS011;8060;50.948;3.146;2022-09-01T08:31:21;18.17;;;6.50;;
15921;SDS011;8060;50.948;3.146;2022-09-01T08:33:55;14.97;;;6.43;;
15921;SDS011;8060;50.948;3.146;2022-09-01T08:36:24;13.07;;;6.30;;
15921;SDS011;8060;50.948;3.146;2022-09-01T08:38:52;14.47;;;6.23;;
15921;SDS011;8060;50.948;3.146;2022-09-01T08:41:23;18.53;;;6.40;;
15921;SDS011;8060;50.948;3.146;2022-09-01T08:44:02;9.93;;;6.03;;
15921;SDS011;8060;50.948;3.146;2022-09-01T08:46:36;10.30;;;5.97;;
15921;SDS011;8060;50.948;3.146;2022-09-01T08:49:08;7.85;;;6.30;;
15921;SDS011;8060;50.948;3.146;2022-09-01T08:51:52;12.82;;;6.30;;
15921;SDS011;8060;50.948;3.146;2022-09-01T08:54:28;9.02;;;6.15;;
15921;SDS011;8060;50.948;3.146;2022-09-01T08:57:04;18.50;;;6.13;;
15921;SDS011;8060;50.948;3.146;2022-09-01T08:59:34;9.18;;;5.75;;
15921;SDS011;8060;50.948;3.146;2022-09-01T09:02:05;18.02;;;5.75;;
15921;SDS011;8060;50.948;3.146;2022-09-01T09:04:50;11.98;;;5.85;;
15921;SDS011;8060;50.948;3.146;2022-09-01T09:07:31;15.55;;;6.35;;
15921;SDS011;8060;50.948;3.146;2022-09-01T09:10:34;12.10;;;6.05;;
15921;SDS011;8060;50.948;3.146;2022-09-01T09:13:14;8.18;;;6.22;;
15921;SDS011;8060;50.948;3.146;2022-09-01T09:15:50;10.32;;;5.25;;
15921;SDS011;8060;50.948;3.146;2022-09-01T09:18:35;13.65;;;5.45;;
15921;SDS011;8060;50.948;3.146;2022-09-01T09:21:21;13.20;;;6.20;;
15921;SDS011;8060;50.948;3.146;2022-09-01T09:23:58;14.88;;;6.47;;
15921;SDS011;8060;50.948;3.146;2022-09-01T09:26:32;11.70;;;5.82;;
15921;SDS011;8060;50.948;3.146;2022-09-01T09:29:08;12.52;;;5.90;;
15921;SDS011;8060;50.948;3.146;2022-09-01T09:31:37;13.43;;;6.32;;
15921;SDS011;8060;50.948;3.146;2022-09-01T09:36:59;12.68;;;6.00;;
15921;SDS011;8060;50.948;3.146;2022-09-01T09:39:44;11.68;;;5.78;;
15921;SDS011;8060;50.948;3.146;2022-09-01T09:42:12;15.50;;;5.70;;
15921;SDS011;8060;50.948;3.146;2022-09-01T09:44:42;10.10;;;5.75;;
15921;SDS011;8060;50.948;3.146;2022-09-01T09:47:31;8.65;;;4.88;;
15921;SDS011;8060;50.948;3.146;2022-09-01T09:50:10;13.18;;;5.95;;
15921;SDS011;8060;50.948;3.146;2022-09-01T09:52:42;10.23;;;5.90;;
15921;SDS011;8060;50.948;3.146;2022-09-01T09:55:20;11.70;;;6.68;;
15921;SDS011;8060;50.948;3.146;2022-09-01T09:57:54;12.07;;;5.50;;
15921;SDS011;8060;50.948;3.146;2022-09-01T10:00:26;13.80;;;5.53;;
15921;SDS011;8060;50.948;3.146;2022-09-01T10:02:57;7.60;;;5.30;;
15921;SDS011;8060;50.948;3.146;2022-09-01T10:05:35;15.10;;;5.53;;
15921;SDS011;8060;50.948;3.146;2022-09-01T10:08:06;8.60;;;5.88;;
15921;SDS011;8060;50.948;3.146;2022-09-01T10:10:39;8.27;;;5.40;;
15921;SDS011;8060;50.948;3.146;2022-09-01T10:13:10;7.93;;;4.90;;
15921;SDS011;8060;50.948;3.146;2022-09-01T10:15:40;13.13;;;5.57;;
15921;SDS011;8060;50.948;3.146;2022-09-01T10:18:17;10.13;;;5.43;;
15921;SDS011;8060;50.948;3.146;2022-09-01T10:20:55;13.82;;;5.47;;
15921;SDS011;8060;50.948;3.146;2022-09-01T10:23:27;11.68;;;5.43;;
15921;SDS011;8060;50.948;3.146;2022-09-01T10:25:59;9.75;;;5.38;;
15921;SDS011;8060;50.948;3.146;2022-09-01T10:28:35;9.68;;;5.13;;
15921;SDS011;8060;50.948;3.146;2022-09-01T10:31:16;8.23;;;5.07;;
15921;SDS011;8060;50.948;3.146;2022-09-01T10:33:45;13.27;;;5.03;;
15921;SDS011;8060;50.948;3.146;2022-09-01T10:36:13;6.82;;;5.00;;
15921;SDS011;8060;50.948;3.146;2022-09-01T10:38:43;8.23;;;4.40;;
15921;SDS011;8060;50.948;3.146;2022-09-01T10:44:25;17.27;;;5.32;;
15921;SDS011;8060;50.948;3.146;2022-09-01T10:46:59;8.57;;;3.88;;
15921;SDS011;8060;50.948;3.146;2022-09-01T10:52:52;13.00;;;4.70;;
15921;SDS011;8060;50.948;3.146;2022-09-01T10:55:30;14.82;;;5.03;;
15921;SDS011;8060;50.948;3.146;2022-09-01T10:58:07;9.07;;;4.40;;
15921;SDS011;8060;50.948;3.146;2022-09-01T11:01:08;7.18;;;3.70;;
15921;SDS011;8060;50.948;3.146;2022-09-01T11:09:47;6.95;;;2.95;;
15921;SDS011;8060;50.948;3.146;2022-09-01T11:15:51;7.68;;;2.80;;
15921;SDS011;8060;50.948;3.146;2022-09-01T11:18:25;5.80;;;3.03;;
15921;SDS011;8060;50.948;3.146;2022-09-01T11:21:11;8.20;;;2.95;;
15921;SDS011;8060;50.948;3.146;2022-09-01T11:23:41;8.27;;;2.92;;
15921;SDS011;8060;50.948;3.146;2022-09-01T11:32:18;9.30;;;3.08;;
15921;SDS011;8060;50.948;3.146;2022-09-01T11:34:50;7.93;;;3.20;;
15921;SDS011;8060;50.948;3.146;2022-09-01T11:37:21;4.63;;;2.88;;
15921;SDS011;8060;50.948;3.146;2022-09-01T11:39:53;8.50;;;3.08;;
15921;SDS011;8060;50.948;3.146;2022-09-01T11:42:25;6.15;;;3.42;;
15921;SDS011;8060;50.948;3.146;2022-09-01T11:44:58;5.45;;;3.10;;
15921;SDS011;8060;50.948;3.146;2022-09-01T11:47:31;8.55;;;3.25;;
15921;SDS011;8060;50.948;3.146;2022-09-01T11:50:04;5.03;;;2.75;;
15921;SDS011;8060;50.948;3.146;2022-09-01T11:52:35;5.50;;;2.88;;
15921;SDS011;8060;50.948;3.146;2022-09-01T11:55:05;9.00;;;3.00;;
15921;SDS011;8060;50.948;3.146;2022-09-01T11:57:34;10.38;;;3.33;;
15921;SDS011;8060;50.948;3.146;2022-09-01T12:00:05;5.60;;;3.13;;
15921;SDS011;8060;50.948;3.146;2022-09-01T12:02:41;8.35;;;2.50;;
15921;SDS011;8060;50.948;3.146;2022-09-01T12:05:22;5.80;;;2.90;;
15921;SDS011;8060;50.948;3.146;2022-09-01T12:07:55;4.75;;;3.10;;
15921;SDS011;8060;50.948;3.146;2022-09-01T12:10:28;4.20;;;2.70;;
15921;SDS011;8060;50.948;3.146;2022-09-01T12:13:00;4.90;;;2.90;;
15921;SDS011;8060;50.948;3.146;2022-09-01T12:15:30;6.70;;;3.00;;
15921;SDS011;8060;50.948;3.146;2022-09-01T12:18:15;9.77;;;2.88;;
15921;SDS011;8060;50.948;3.146;2022-09-01T12:20:48;7.32;;;2.58;;
15921;SDS011;8060;50.948;3.146;2022-09-01T12:23:22;5.40;;;3.03;;
15921;SDS011;8060;50.948;3.146;2022-09-01T12:25:52;7.90;;;3.42;;
15921;SDS011;8060;50.948;3.146;2022-09-01T12:28:22;9.65;;;3.10;;
15921;SDS011;8060;50.948;3.146;2022-09-01T12:30:55;7.57;;;3.05;;
15921;SDS011;8060;50.948;3.146;2022-09-01T12:33:27;6.05;;;3.13;;
15921;SDS011;8060;50.948;3.146;2022-09-01T12:42:00;6.18;;;2.90;;
15921;SDS011;8060;50.948;3.146;2022-09-01T12:44:41;6.47;;;3.03;;
15921;SDS011;8060;50.948;3.146;2022-09-01T12:47:13;5.07;;;2.85;;
15921;SDS011;8060;50.948;3.146;2022-09-01T12:50:34;3.72;;;2.80;;
15921;SDS011;8060;50.948;3.146;2022-09-01T12:53:11;6.03;;;2.70;;
15921;SDS011;8060;50.948;3.146;2022-09-01T12:55:56;6.60;;;3.17;;
15921;SDS011;8060;50.948;3.146;2022-09-01T12:58:32;5.50;;;3.45;;
15921;SDS011;8060;50.948;3.146;2022-09-01T13:01:01;6.20;;;2.97;;
15921;SDS011;8060;50.948;3.146;2022-09-01T13:03:41;8.52;;;3.08;;
15921;SDS011;8060;50.948;3.146;2022-09-01T13:06:31;8.50;;;3.42;;
15921;SDS011;8060;50.948;3.146;2022-09-01T13:08:59;12.40;;;3.20;;
15921;SDS011;8060;50.948;3.146;2022-09-01T13:11:27;10.02;;;3.40;;
15921;SDS011;8060;50.948;3.146;2022-09-01T13:14:15;7.50;;;2.92;;
15921;SDS011;8060;50.948;3.146;2022-09-01T13:16:44;5.70;;;2.50;;
15921;SDS011;8060;50.948;3.146;2022-09-01T13:19:13;7.88;;;3.08;;
15921;SDS011;8060;50.948;3.146;2022-09-01T13:21:54;9.35;;;2.78;;
15921;SDS011;8060;50.948;3.146;2022-09-01T13:24:22;4.70;;;3.20;;
15921;SDS011;8060;50.948;3.146;2022-09-01T13:26:55;6.22;;;2.85;;
15921;SDS011;8060;50.948;3.146;2022-09-01T13:29:43;6.47;;;2.92;;
15921;SDS011;8060;50.948;3.146;2022-09-01T13:32:11;5.45;;;2.63;;
15921;SDS011;8060;50.948;3.146;2022-09-01T13:34:45;4.10;;;2.92;;
15921;SDS011;8060;50.948;3.146;2022-09-01T13:37:17;7.05;;;3.10;;
15921;SDS011;8060;50.948;3.146;2022-09-01T13:39:46;10.00;;;3.00;;
15921;SDS011;8060;50.948;3.146;2022-09-01T13:42:14;7.05;;;3.08;;
15921;SDS011;8060;50.948;3.146;2022-09-01T13:44:43;6.85;;;3.33;;
15921;SDS011;8060;50.948;3.146;2022-09-01T13:47:16;4.90;;;2.80;;
15921;SDS011;8060;50.948;3.146;2022-09-01T13:50:00;6.18;;;3.33;;
15921;SDS011;8060;50.948;3.146;2022-09-01T13:52:36;10.43;;;2.90;;
15921;SDS011;8060;50.948;3.146;2022-09-01T13:55:05;11.80;;;3.50;;
15921;SDS011;8060;50.948;3.146;2022-09-01T13:57:35;6.70;;;2.75;;
15921;SDS011;8060;50.948;3.146;2022-09-01T14:00:04;5.13;;;3.33;;
15921;SDS011;8060;50.948;3.146;2022-09-01T14:02:36;7.35;;;3.05;;
15921;SDS011;8060;50.948;3.146;2022-09-01T14:05:04;6.90;;;3.20;;
15921;SDS011;8060;50.948;3.146;2022-09-01T14:07:33;7.00;;;2.50;;
15921;SDS011;8060;50.948;3.146;2022-09-01T14:10:04;5.65;;;2.70;;
15921;SDS011;8060;50.948;3.146;2022-09-01T14:12:34;5.60;;;2.53;;
15921;SDS011;8060;50.948;3.146;2022-09-01T14:15:03;6.40;;;2.50;;
15921;SDS011;8060;50.948;3.146;2022-09-01T14:17:43;7.88;;;2.30;;
15921;SDS011;8060;50.948;3.146;2022-09-01T14:20:14;3.92;;;2.28;;
15921;SDS011;8060;50.948;3.146;2022-09-01T14:22:44;6.47;;;2.25;;
15921;SDS011;8060;50.948;3.146;2022-09-01T14:25:14;2.22;;;1.88;;
15921;SDS011;8060;50.948;3.146;2022-09-01T14:27:44;6.10;;;2.35;;
15921;SDS011;8060;50.948;3.146;2022-09-01T14:30:14;7.05;;;2.05;;
15921;SDS011;8060;50.948;3.146;2022-09-01T14:32:44;6.00;;;2.78;;
15921;SDS011;8060;50.948;3.146;2022-09-01T14:35:13;8.85;;;2.45;;
15921;SDS011;8060;50.948;3.146;2022-09-01T14:37:43;7.40;;;3.55;;
15921;SDS011;8060;50.948;3.146;2022-09-01T14:40:11;8.27;;;3.95;;
15921;SDS011;8060;50.948;3.146;2022-09-01T14:42:44;5.22;;;2.90;;
15921;SDS011;8060;50.948;3.146;2022-09-01T14:45:15;3.88;;;2.38;;
15921;SDS011;8060;50.948;3.146;2022-09-01T14:47:45;6.28;;;2.22;;
15921;SDS011;8060;50.948;3.146;2022-09-01T14:50:13;7.50;;;2.40;;
15921;SDS011;8060;50.948;3.146;2022-09-01T14:52:48;5.43;;;2.30;;
15921;SDS011;8060;50.948;3.146;2022-09-01T14:55:18;4.93;;;2.22;;
15921;SDS011;8060;50.948;3.146;2022-09-01T14:57:48;4.18;;;1.95;;
15921;SDS011;8060;50.948;3.146;2022-09-01T15:00:18;4.38;;;2.20;;
15921;SDS011;8060;50.948;3.146;2022-09-01T15:02:46;6.47;;;2.30;;
15921;SDS011;8060;50.948;3.146;2022-09-01T15:05:14;2.83;;;1.95;;
15921;SDS011;8060;50.948;3.146;2022-09-01T15:07:42;3.53;;;1.95;;
15921;SDS011;8060;50.948;3.146;2022-09-01T15:10:12;3.67;;;2.20;;
15921;SDS011;8060;50.948;3.146;2022-09-01T15:12:51;6.03;;;2.05;;
15921;SDS011;8060;50.948;3.146;2022-09-01T15:15:21;7.00;;;2.35;;
15921;SDS011;8060;50.948;3.146;2022-09-01T15:17:50;5.82;;;2.00;;
15921;SDS011;8060;50.948;3.146;2022-09-01T15:20:18;4.57;;;2.20;;
15921;SDS011;8060;50.948;3.146;2022-09-01T15:23:04;5.13;;;1.60;;
15921;SDS011;8060;50.948;3.146;2022-09-01T15:25:35;5.07;;;1.95;;
15921;SDS011;8060;50.948;3.146;2022-09-01T15:28:05;4.60;;;2.10;;
15921;SDS011;8060;50.948;3.146;2022-09-01T15:30:35;5.53;;;2.00;;
15921;SDS011;8060;50.948;3.146;2022-09-01T15:33:05;1.95;;;1.75;;
15921;SDS011;8060;50.948;3.146;2022-09-01T15:35:40;5.60;;;2.22;;
15921;SDS011;8060;50.948;3.146;2022-09-01T15:38:09;6.32;;;2.03;;
15921;SDS011;8060;50.948;3.146;2022-09-01T15:40:43;4.93;;;1.70;;
15921;SDS011;8060;50.948;3.146;2022-09-01T15:43:25;4.40;;;2.00;;
15921;SDS011;8060;50.948;3.146;2022-09-01T15:45:54;4.18;;;1.88;;
15921;SDS011;8060;50.948;3.146;2022-09-01T15:48:24;4.45;;;2.15;;
15921;SDS011;8060;50.948;3.146;2022-09-01T15:50:53;6.28;;;2.00;;
15921;SDS011;8060;50.948;3.146;2022-09-01T15:53:37;5.65;;;2.13;;
15921;SDS011;8060;50.948;3.146;2022-09-01T15:56:05;4.32;;;1.90;;
15921;SDS011;8060;50.948;3.146;2022-09-01T15:58:35;8.70;;;1.90;;
15921;SDS011;8060;50.948;3.146;2022-09-01T16:01:23;5.82;;;2.00;;
15921;SDS011;8060;50.948;3.146;2022-09-01T16:03:52;4.53;;;1.60;;
15921;SDS011;8060;50.948;3.146;2022-09-01T16:06:20;5.93;;;1.80;;
15921;SDS011;8060;50.948;3.146;2022-09-01T16:08:49;4.32;;;1.90;;
15921;SDS011;8060;50.948;3.146;2022-09-01T16:11:19;4.00;;;1.60;;
15921;SDS011;8060;50.948;3.146;2022-09-01T16:13:51;3.65;;;1.90;;
15921;SDS011;8060;50.948;3.146;2022-09-01T16:16:24;6.80;;;2.40;;
15921;SDS011;8060;50.948;3.146;2022-09-01T16:19:05;4.90;;;2.03;;
15921;SDS011;8060;50.948;3.146;2022-09-01T16:21:43;5.22;;;1.88;;
15921;SDS011;8060;50.948;3.146;2022-09-01T16:24:15;2.92;;;1.67;;
15921;SDS011;8060;50.948;3.146;2022-09-01T16:26:45;4.65;;;2.03;;
15921;SDS011;8060;50.948;3.146;2022-09-01T16:29:18;3.10;;;2.10;;
15921;SDS011;8060;50.948;3.146;2022-09-01T16:31:54;2.50;;;1.80;;
15921;SDS011;8060;50.948;3.146;2022-09-01T16:34:22;7.10;;;1.67;;
15921;SDS011;8060;50.948;3.146;2022-09-01T16:36:56;2.08;;;1.58;;
15921;SDS011;8060;50.948;3.146;2022-09-01T16:39:33;5.90;;;1.90;;
15921;SDS011;8060;50.948;3.146;2022-09-01T16:42:10;6.22;;;1.95;;
15921;SDS011;8060;50.948;3.146;2022-09-01T16:44:52;3.95;;;1.73;;
15921;SDS011;8060;50.948;3.146;2022-09-01T16:47:34;4.78;;;1.80;;
15921;SDS011;8060;50.948;3.146;2022-09-01T16:50:14;4.55;;;1.98;;
15921;SDS011;8060;50.948;3.146;2022-09-01T16:53:09;4.22;;;1.80;;
15921;SDS011;8060;50.948;3.146;2022-09-01T16:58:39;10.43;;;2.08;;
15921;SDS011;8060;50.948;3.146;2022-09-01T17:01:18;4.93;;;1.83;;
15921;SDS011;8060;50.948;3.146;2022-09-01T17:03:59;7.68;;;2.08;;
15921;SDS011;8060;50.948;3.146;2022-09-01T17:06:38;8.82;;;2.10;;
15921;SDS011;8060;50.948;3.146;2022-09-01T17:09:16;6.20;;;2.22;;
15921;SDS011;8060;50.948;3.146;2022-09-01T17:11:49;10.95;;;2.03;;
15921;SDS011;8060;50.948;3.146;2022-09-01T17:14:21;5.18;;;2.00;;
15921;SDS011;8060;50.948;3.146;2022-09-01T17:17:01;4.95;;;2.08;;
15921;SDS011;8060;50.948;3.146;2022-09-01T17:19:35;4.43;;;2.20;;
15921;SDS011;8060;50.948;3.146;2022-09-01T17:22:06;6.53;;;2.15;;
15921;SDS011;8060;50.948;3.146;2022-09-01T17:24:39;10.68;;;2.30;;
15921;SDS011;8060;50.948;3.146;2022-09-01T17:27:10;10.10;;;2.33;;
15921;SDS011;8060;50.948;3.146;2022-09-01T17:29:41;10.32;;;2.45;;
15921;SDS011;8060;50.948;3.146;2022-09-01T17:32:19;6.25;;;2.53;;
15921;SDS011;8060;50.948;3.146;2022-09-01T17:34:58;6.18;;;2.40;;
15921;SDS011;8060;50.948;3.146;2022-09-01T17:37:37;12.55;;;2.20;;
15921;SDS011;8060;50.948;3.146;2022-09-01T17:40:17;4.88;;;2.40;;
15921;SDS011;8060;50.948;3.146;2022-09-01T17:42:51;8.45;;;2.47;;
15921;SDS011;8060;50.948;3.146;2022-09-01T17:45:28;12.98;;;2.63;;
15921;SDS011;8060;50.948;3.146;2022-09-01T17:48:06;9.48;;;2.97;;
15921;SDS011;8060;50.948;3.146;2022-09-01T17:50:44;8.85;;;2.63;;
15921;SDS011;8060;50.948;3.146;2022-09-01T17:53:28;9.35;;;2.90;;
15921;SDS011;8060;50.948;3.146;2022-09-01T17:56:05;7.55;;;2.30;;
15921;SDS011;8060;50.948;3.146;2022-09-01T17:58:44;7.00;;;2.17;;
15921;SDS011;8060;50.948;3.146;2022-09-01T18:01:20;6.07;;;2.22;;
15921;SDS011;8060;50.948;3.146;2022-09-01T18:06:51;5.88;;;2.50;;
15921;SDS011;8060;50.948;3.146;2022-09-01T18:09:25;6.90;;;2.50;;
15921;SDS011;8060;50.948;3.146;2022-09-01T18:11:57;3.88;;;2.53;;
15921;SDS011;8060;50.948;3.146;2022-09-01T18:14:29;7.55;;;2.63;;
15921;SDS011;8060;50.948;3.146;2022-09-01T18:17:02;17.15;;;4.07;;
15921;SDS011;8060;50.948;3.146;2022-09-01T18:19:37;7.88;;;4.40;;
15921;SDS011;8060;50.948;3.146;2022-09-01T18:22:07;9.43;;;4.32;;
15921;SDS011;8060;50.948;3.146;2022-09-01T18:24:41;9.95;;;3.35;;
15921;SDS011;8060;50.948;3.146;2022-09-01T18:27:14;7.32;;;2.70;;
15921;SDS011;8060;50.948;3.146;2022-09-01T18:29:43;7.20;;;2.42;;
15921;SDS011;8060;50.948;3.146;2022-09-01T18:32:16;4.35;;;2.05;;
15921;SDS011;8060;50.948;3.146;2022-09-01T18:35:04;3.80;;;2.42;;
15921;SDS011;8060;50.948;3.146;2022-09-01T18:37:45;10.75;;;2.20;;
15921;SDS011;8060;50.948;3.146;2022-09-01T18:40:26;7.82;;;2.00;;
15921;SDS011;8060;50.948;3.146;2022-09-01T18:42:58;5.53;;;1.77;;
15921;SDS011;8060;50.948;3.146;2022-09-01T18:45:34;4.68;;;1.77;;
15921;SDS011;8060;50.948;3.146;2022-09-01T18:48:12;6.57;;;2.13;;
15921;SDS011;8060;50.948;3.146;2022-09-01T18:50:54;4.13;;;1.98;;
15921;SDS011;8060;50.948;3.146;2022-09-01T18:53:31;3.22;;;1.92;;
15921;SDS011;8060;50.948;3.146;2022-09-01T18:56:08;4.57;;;1.60;;
15921;SDS011;8060;50.948;3.146;2022-09-01T18:58:50;6.28;;;1.80;;
15921;SDS011;8060;50.948;3.146;2022-09-01T19:01:27;5.45;;;1.85;;
15921;SDS011;8060;50.948;3.146;2022-09-01T19:04:02;3.80;;;1.60;;
15921;SDS011;8060;50.948;3.146;2022-09-01T19:06:42;9.75;;;1.65;;
15921;SDS011;8060;50.948;3.146;2022-09-01T19:09:17;6.70;;;1.63;;
15921;SDS011;8060;50.948;3.146;2022-09-01T19:11:56;9.57;;;1.60;;
15921;SDS011;8060;50.948;3.146;2022-09-01T19:14:32;6.47;;;1.70;;
15921;SDS011;8060;50.948;3.146;2022-09-01T19:17:12;5.93;;;1.67;;
15921;SDS011;8060;50.948;3.146;2022-09-01T19:19:51;6.63;;;1.80;;
15921;SDS011;8060;50.948;3.146;2022-09-01T19:22:26;5.83;;;1.70;;
15921;SDS011;8060;50.948;3.146;2022-09-01T19:25:00;5.43;;;1.60;;
15921;SDS011;8060;50.948;3.146;2022-09-01T19:27:48;10.70;;;1.77;;
15921;SDS011;8060;50.948;3.146;2022-09-01T19:30:22;6.30;;;1.67;;
15921;SDS011;8060;50.948;3.146;2022-09-01T19:32:50;10.77;;;1.70;;
15921;SDS011;8060;50.948;3.146;2022-09-01T19:35:19;4.97;;;1.60;;
15921;SDS011;8060;50.948;3.146;2022-09-01T19:37:48;6.83;;;1.53;;
15921;SDS011;8060;50.948;3.146;2022-09-01T19:40:17;5.53;;;1.30;;
15921;SDS011;8060;50.948;3.146;2022-09-01T19:42:52;5.60;;;1.50;;
15921;SDS011;8060;50.948;3.146;2022-09-01T19:45:24;3.63;;;1.30;;
15921;SDS011;8060;50.948;3.146;2022-09-01T19:47:56;9.60;;;1.77;;
15921;SDS011;8060;50.948;3.146;2022-09-01T19:50:33;3.70;;;1.43;;
15921;SDS011;8060;50.948;3.146;2022-09-01T19:53:08;7.23;;;1.40;;
15921;SDS011;8060;50.948;3.146;2022-09-01T19:55:47;5.63;;;1.40;;
15921;SDS011;8060;50.948;3.146;2022-09-01T19:58:22;5.07;;;1.47;;
15921;SDS011;8060;50.948;3.146;2022-09-01T20:00:53;6.50;;;1.30;;
15921;SDS011;8060;50.948;3.146;2022-09-01T20:03:25;5.73;;;1.20;;
15921;SDS011;8060;50.948;3.146;2022-09-01T20:06:01;3.20;;;1.30;;
15921;SDS011;8060;50.948;3.146;2022-09-01T20:08:35;3.87;;;1.43;;
15921;SDS011;8060;50.948;3.146;2022-09-01T20:11:08;9.10;;;1.10;;
15921;SDS011;8060;50.948;3.146;2022-09-01T20:13:44;3.67;;;1.50;;
15921;SDS011;8060;50.948;3.146;2022-09-01T20:16:43;4.87;;;1.30;;
15921;SDS011;8060;50.948;3.146;2022-09-01T20:19:14;5.33;;;1.57;;
15921;SDS011;8060;50.948;3.146;2022-09-01T20:21:48;6.87;;;1.57;;
15921;SDS011;8060;50.948;3.146;2022-09-01T20:24:18;7.43;;;1.60;;
15921;SDS011;8060;50.948;3.146;2022-09-01T20:26:57;4.10;;;1.30;;
15921;SDS011;8060;50.948;3.146;2022-09-01T20:29:31;6.30;;;1.47;;
15921;SDS011;8060;50.948;3.146;2022-09-01T20:32:07;4.83;;;1.20;;
15921;SDS011;8060;50.948;3.146;2022-09-01T20:34:40;8.70;;;1.40;;
